Terminal Aerodrome Forecast
Issued by NWS

Home | Current Version | Previous Version | Text Only | Print | Product List | Glossary On
Versions: 1 2 3 4 5 6 7 8 9 10 11 12 13 14 15 16 17 18 19 20 21 22 23 24 25 26 27
000
FTUS41 KBUF 212336
TAFIAG
TAF
KIAG 212336Z 2200/2224 03003KT 1/4SM FG OVC002
     FM220600 07003KT 1/2SM FG OVC003
     FM221400 VRB03KT 1SM -DZ BR OVC003
     FM221600 07006KT P6SM OVC015
     FM222000 08011G18KT P6SM OVC130
     FM222200 08011G20KT P6SM OVC007=

USA.gov is the U.S. government's official web portal to all federal, state and local government web resources and services.